createdAt,value
2022-09-13T00:03:37.810Z,1.80
2022-09-13T00:07:21.830Z,2.13
2022-09-13T00:11:04.557Z,1.60
2022-09-13T00:14:48.279Z,1.65
2022-09-13T00:18:31.085Z,1.73
2022-09-13T00:22:13.887Z,1.60
2022-09-13T00:26:05.948Z,1.80
2022-09-13T00:29:48.388Z,1.58
2022-09-13T00:33:31.053Z,1.80
2022-09-13T00:37:13.710Z,1.20
2022-09-13T00:40:56.585Z,1.55
2022-09-13T00:44:57.518Z,1.50
2022-09-13T00:48:40.251Z,1.20
2022-09-13T00:52:25.685Z,1.30
2022-09-13T00:56:12.584Z,1.45
2022-09-13T01:00:01.616Z,1.23
2022-09-13T01:03:46.416Z,1.48
2022-09-13T01:07:29.171Z,1.48
2022-09-13T01:11:17.401Z,1.45
2022-09-13T01:15:05.119Z,1.63
2022-09-13T01:18:47.956Z,1.70
2022-09-13T01:23:04.453Z,1.50
2022-09-13T01:27:16.760Z,1.70
2022-09-13T01:31:07.318Z,1.50
2022-09-13T01:34:58.912Z,1.40
2022-09-13T01:38:53.722Z,1.40
2022-09-13T01:42:50.018Z,1.63
2022-09-13T01:46:40.257Z,1.23
2022-09-13T01:50:28.962Z,1.40
2022-09-13T01:54:18.331Z,1.30
2022-09-13T01:58:12.336Z,1.20
2022-09-13T02:02:02.333Z,1.20
2022-09-13T02:05:51.223Z,1.17
2022-09-13T02:09:38.620Z,1.02
2022-09-13T02:13:25.497Z,1.30
2022-09-13T02:17:15.071Z,1.20
2022-09-13T02:21:02.966Z,0.90
2022-09-13T02:24:49.376Z,1.63
2022-09-13T02:28:36.756Z,1.33
2022-09-13T02:32:24.946Z,1.30
2022-09-13T02:36:11.163Z,1.40
2022-09-13T02:40:00.824Z,1.17
2022-09-13T02:43:48.286Z,1.27
2022-09-13T02:47:41.260Z,1.50
2022-09-13T02:51:31.461Z,1.30
2022-09-13T02:55:21.160Z,1.13
2022-09-13T02:59:12.109Z,1.00
2022-09-13T03:02:59.388Z,1.30
2022-09-13T03:06:42.619Z,1.20
2022-09-13T03:10:28.187Z,1.15
2022-09-13T03:14:23.839Z,1.35
2022-09-13T03:18:21.968Z,1.60
2022-09-13T03:22:19.235Z,1.30
2022-09-13T03:26:17.963Z,1.20
2022-09-13T03:30:05.500Z,1.40
2022-09-13T03:34:13.751Z,1.23
2022-09-13T03:38:02.181Z,1.30
2022-09-13T03:41:51.077Z,1.30
2022-09-13T03:45:37.928Z,1.42
2022-09-13T03:49:24.181Z,1.20
2022-09-13T03:53:10.349Z,1.40
2022-09-13T03:57:11.464Z,1.30
2022-09-13T04:00:54.860Z,1.83
2022-09-13T04:04:39.997Z,1.33
2022-09-13T04:08:22.758Z,1.63
2022-09-13T04:12:05.644Z,1.57
2022-09-13T04:15:48.438Z,1.50
2022-09-13T04:19:31.413Z,1.60
2022-09-13T04:23:15.568Z,1.40
2022-09-13T04:26:58.381Z,1.73
2022-09-13T04:30:44.626Z,1.50
2022-09-13T04:34:27.188Z,1.30
2022-09-13T04:38:10.025Z,1.20
2022-09-13T04:41:55.301Z,1.55
2022-09-13T04:45:39.256Z,1.70
2022-09-13T04:49:22.100Z,2.00
2022-09-13T04:53:05.208Z,1.88
2022-09-13T04:56:48.805Z,1.65
2022-09-13T05:00:34.471Z,1.60
2022-09-13T05:04:17.259Z,1.70
2022-09-13T05:07:59.688Z,1.80
2022-09-13T05:11:42.926Z,1.93
2022-09-13T05:15:25.502Z,1.30
2022-09-13T05:19:10.602Z,1.10
2022-09-13T05:22:53.449Z,1.27
2022-09-13T05:26:36.290Z,1.20
2022-09-13T05:30:19.329Z,1.70
2022-09-13T05:34:03.813Z,1.70
2022-09-13T05:37:49.923Z,1.58
2022-09-13T05:41:32.539Z,1.30
2022-09-13T05:45:15.551Z,1.50
2022-09-13T05:49:00.325Z,1.48
2022-09-13T05:52:43.332Z,1.40
2022-09-13T05:56:29.227Z,1.20
2022-09-13T06:00:12.905Z,0.95
2022-09-13T06:03:58.836Z,1.30
2022-09-13T06:07:42.443Z,1.60
2022-09-13T06:11:27.493Z,1.30
2022-09-13T06:15:11.397Z,1.30
2022-09-13T06:18:53.732Z,1.23
2022-09-13T06:22:37.007Z,0.93
2022-09-13T06:26:21.701Z,1.23
2022-09-13T06:30:08.761Z,1.25
2022-09-13T06:33:57.505Z,1.30
2022-09-13T06:37:40.301Z,1.30
2022-09-13T06:41:24.955Z,1.30
2022-09-13T06:45:10.769Z,1.20
2022-09-13T06:48:53.977Z,1.50
2022-09-13T06:52:37.495Z,1.25
2022-09-13T06:56:21.267Z,1.50
2022-09-13T07:00:04.967Z,1.27
2022-09-13T07:03:50.954Z,1.20
2022-09-13T07:07:33.777Z,1.08
2022-09-13T07:11:19.102Z,0.95
2022-09-13T07:15:01.750Z,0.80
2022-09-13T07:18:44.600Z,1.00
2022-09-13T07:22:28.689Z,1.08
2022-09-13T07:26:11.522Z,0.80
2022-09-13T07:29:54.292Z,1.00
2022-09-13T07:33:37.652Z,1.15
2022-09-13T07:37:20.140Z,0.77
2022-09-13T07:41:06.715Z,0.80
2022-09-13T07:44:49.500Z,1.42
2022-09-13T07:48:34.818Z,0.98
2022-09-13T07:52:17.572Z,1.45
2022-09-13T07:56:07.225Z,1.08
2022-09-13T07:59:49.710Z,1.88
2022-09-13T08:03:32.576Z,1.10
2022-09-13T08:07:15.493Z,1.33
2022-09-13T08:10:58.919Z,1.50
2022-09-13T08:14:42.802Z,1.45
2022-09-13T08:18:25.262Z,1.70
2022-09-13T08:22:07.975Z,1.00
2022-09-13T08:25:50.987Z,1.13
2022-09-13T08:33:17.824Z,0.88
2022-09-13T08:37:00.773Z,1.27
2022-09-13T08:40:47.273Z,1.67
2022-09-13T08:44:31.796Z,0.80
2022-09-13T08:48:19.922Z,0.73
2022-09-13T08:52:12.987Z,1.30
2022-09-13T08:59:55.147Z,0.93
2022-09-13T09:03:46.682Z,0.85
2022-09-13T09:07:34.611Z,0.88
2022-09-13T09:11:29.181Z,1.40
2022-09-13T09:15:17.424Z,1.23
2022-09-13T09:19:12.808Z,0.98
2022-09-13T09:22:56.628Z,0.90
2022-09-13T09:26:39.109Z,1.10
2022-09-13T09:30:22.469Z,0.90
2022-09-13T09:34:15.060Z,0.90
2022-09-13T09:38:17.860Z,0.95
2022-09-13T09:42:04.191Z,1.05
2022-09-13T09:45:47.871Z,0.80
2022-09-13T09:49:55.638Z,0.75
2022-09-13T09:53:43.559Z,0.60
2022-09-13T09:57:50.817Z,0.70
2022-09-13T10:01:35.753Z,0.70
2022-09-13T10:05:22.073Z,0.60
2022-09-13T10:09:07.365Z,0.43
2022-09-13T10:12:53.422Z,0.60
2022-09-13T10:16:36.166Z,0.75
2022-09-13T10:20:26.741Z,0.80
2022-09-13T10:24:19.175Z,0.77
2022-09-13T10:28:03.085Z,0.75
2022-09-13T10:31:48.245Z,0.63
2022-09-13T10:35:34.049Z,0.70
2022-09-13T10:39:21.216Z,0.68
2022-09-13T10:43:08.548Z,0.60
2022-09-13T10:46:51.633Z,0.57
2022-09-13T10:50:36.257Z,0.52
2022-09-13T10:54:21.084Z,0.82
2022-09-13T10:58:20.967Z,0.60
2022-09-13T11:02:40.694Z,0.60
2022-09-13T11:06:31.589Z,0.60
2022-09-13T11:10:22.567Z,0.57
2022-09-13T11:14:19.950Z,0.68
2022-09-13T11:18:41.984Z,0.77
2022-09-13T11:22:49.312Z,0.60
2022-09-13T11:26:47.472Z,0.50
2022-09-13T11:30:36.875Z,0.70
2022-09-13T11:34:38.782Z,1.00
2022-09-13T11:38:50.397Z,1.05
2022-09-13T11:42:46.264Z,0.80
2022-09-13T11:46:34.188Z,1.10
2022-09-13T11:50:38.400Z,0.80
2022-09-13T11:54:38.002Z,0.90
2022-09-13T11:58:27.115Z,1.00
2022-09-13T12:02:19.451Z,0.70
2022-09-13T12:06:05.953Z,1.27
2022-09-13T12:09:58.848Z,1.02
2022-09-13T12:17:31.860Z,1.00
2022-09-13T12:21:19.238Z,1.83
2022-09-13T12:25:07.548Z,0.90
2022-09-13T12:28:54.513Z,0.95
2022-09-13T12:32:39.379Z,0.98
2022-09-13T12:36:53.695Z,1.23
2022-09-13T12:40:53.885Z,0.98
2022-09-13T12:45:08.198Z,0.90
2022-09-13T12:49:14.123Z,0.90
2022-09-13T12:53:07.800Z,0.77
2022-09-13T12:57:10.385Z,0.95
2022-09-13T13:01:09.654Z,1.02
2022-09-13T13:04:57.293Z,0.75
2022-09-13T13:08:40.405Z,0.88
2022-09-13T13:12:35.297Z,0.70
2022-09-13T13:16:28.522Z,0.98
2022-09-13T13:20:59.203Z,0.73
2022-09-13T13:24:49.439Z,0.70
2022-09-13T13:29:04.923Z,1.00
2022-09-13T13:33:14.387Z,0.70
2022-09-13T13:37:01.991Z,0.68
2022-09-13T13:40:45.102Z,0.55
2022-09-13T13:44:59.296Z,0.50
2022-09-13T13:48:43.939Z,0.65
2022-09-13T13:52:40.485Z,0.70
2022-09-13T13:56:48.549Z,0.52
2022-09-13T14:00:36.019Z,0.50
2022-09-13T14:04:55.244Z,0.60
2022-09-13T14:08:52.176Z,0.50
2022-09-13T14:12:49.068Z,0.88
2022-09-13T14:16:47.227Z,0.65
2022-09-13T14:20:29.911Z,0.50
2022-09-13T14:24:19.829Z,0.65
2022-09-13T14:28:03.410Z,0.73
2022-09-13T14:31:52.616Z,0.60
2022-09-13T14:35:37.401Z,0.88
2022-09-13T14:39:20.229Z,0.52
2022-09-13T14:43:15.910Z,0.52
2022-09-13T14:47:09.455Z,0.88
2022-09-13T14:50:57.319Z,0.60
2022-09-13T14:54:44.716Z,0.73
2022-09-13T14:58:35.569Z,0.90
2022-09-13T15:02:22.006Z,0.93
2022-09-13T15:06:06.578Z,0.70
2022-09-13T15:09:49.641Z,1.02
2022-09-13T15:13:32.769Z,0.80
2022-09-13T15:17:15.391Z,1.13
2022-09-13T15:21:01.965Z,0.90
2022-09-13T15:24:47.386Z,1.40
2022-09-13T15:28:31.971Z,1.08
2022-09-13T15:32:22.551Z,0.70
2022-09-13T15:36:30.138Z,1.02
2022-09-13T15:40:17.732Z,0.98
2022-09-13T15:44:01.192Z,1.17
2022-09-13T15:47:47.016Z,1.08
2022-09-13T15:51:33.474Z,1.10
2022-09-13T15:55:19.639Z,1.15
2022-09-13T16:02:44.341Z,1.15
2022-09-13T16:06:27.240Z,1.08
2022-09-13T16:10:15.992Z,0.85
2022-09-13T16:13:58.463Z,1.30
2022-09-13T16:21:23.575Z,1.10
2022-09-13T16:25:07.106Z,1.58
2022-09-13T16:28:51.183Z,1.23
2022-09-13T16:32:33.796Z,1.13
2022-09-13T16:39:59.336Z,1.20
2022-09-13T16:43:42.514Z,1.50
2022-09-13T16:47:26.721Z,0.98
2022-09-13T16:51:11.447Z,1.77
2022-09-13T16:54:54.031Z,1.35
2022-09-13T17:02:20.233Z,1.20
2022-09-13T17:06:06.985Z,1.27
2022-09-13T17:09:49.774Z,1.90
2022-09-13T17:17:16.317Z,1.02
2022-09-13T17:21:00.775Z,1.75
2022-09-13T17:24:44.938Z,1.10
2022-09-13T17:28:27.764Z,1.42
2022-09-13T17:32:10.561Z,0.80
2022-09-13T17:35:59.837Z,0.90
2022-09-13T17:39:44.089Z,0.88
2022-09-13T17:43:26.773Z,0.70
2022-09-13T17:47:09.526Z,0.80
2022-09-13T17:50:53.223Z,0.88
2022-09-13T17:54:35.564Z,1.10
2022-09-13T17:58:19.623Z,0.95
2022-09-13T18:02:02.412Z,1.08
2022-09-13T18:09:27.544Z,0.93
2022-09-13T18:13:10.086Z,0.98
2022-09-13T18:16:55.818Z,0.90
2022-09-13T18:20:40.655Z,0.85
2022-09-13T18:24:23.458Z,0.88
2022-09-13T18:28:06.212Z,0.93
2022-09-13T18:31:49.122Z,0.80
2022-09-13T18:35:33.285Z,0.70
2022-09-13T18:39:18.108Z,0.82
2022-09-13T18:43:00.808Z,1.30
2022-09-13T18:46:44.521Z,1.10
2022-09-13T18:50:26.953Z,0.90
2022-09-13T18:57:54.765Z,1.25
2022-09-13T19:01:39.939Z,1.02
2022-09-13T19:05:22.787Z,1.10
2022-09-13T19:09:07.058Z,1.05
2022-09-13T19:12:51.131Z,0.98
2022-09-13T19:16:33.878Z,1.25
2022-09-13T19:24:05.177Z,1.13
2022-09-13T19:27:53.829Z,1.00
2022-09-13T19:31:38.005Z,1.13
2022-09-13T19:35:22.155Z,1.17
2022-09-13T19:39:06.475Z,1.23
2022-09-13T19:42:49.208Z,1.42
2022-09-13T19:46:35.813Z,1.23
2022-09-13T19:50:18.807Z,1.77
2022-09-13T19:57:45.107Z,1.30
2022-09-13T20:01:30.100Z,1.10
2022-09-13T20:05:14.328Z,1.50
2022-09-13T20:09:01.184Z,1.30
2022-09-13T20:12:43.887Z,1.23
2022-09-13T20:16:29.252Z,1.42
2022-09-13T20:20:13.436Z,1.63
2022-09-13T20:23:57.522Z,1.75
2022-09-13T20:27:40.099Z,1.70
2022-09-13T20:31:23.508Z,1.33
2022-09-13T20:35:07.137Z,1.40
2022-09-13T20:38:53.369Z,1.55
2022-09-13T20:42:36.341Z,1.35
2022-09-13T20:46:20.463Z,1.20
2022-09-13T20:50:02.789Z,1.23
2022-09-13T20:53:45.883Z,1.25
2022-09-13T20:57:30.367Z,1.08
2022-09-13T21:01:15.339Z,1.10
2022-09-13T21:04:58.060Z,1.23
2022-09-13T21:08:42.156Z,1.55
2022-09-13T21:12:24.685Z,1.30
2022-09-13T21:16:10.825Z,1.30
2022-09-13T21:19:53.171Z,1.50
2022-09-13T21:23:39.614Z,1.20
2022-09-13T21:27:22.532Z,1.08
2022-09-13T21:31:10.501Z,1.20
2022-09-13T21:34:53.316Z,1.60
2022-09-13T21:38:37.005Z,1.17
2022-09-13T21:42:20.011Z,1.10
2022-09-13T21:46:04.491Z,1.40
2022-09-13T21:49:48.620Z,1.30
2022-09-13T21:53:35.518Z,1.35
2022-09-13T21:57:18.622Z,1.58
2022-09-13T22:01:09.185Z,1.65
2022-09-13T22:04:53.225Z,1.23
2022-09-13T22:08:38.565Z,1.23
2022-09-13T22:12:23.206Z,1.30
2022-09-13T22:16:08.102Z,1.23
2022-09-13T22:19:52.199Z,1.23
2022-09-13T22:23:35.722Z,1.25
2022-09-13T22:31:05.378Z,1.52
2022-09-13T22:34:48.213Z,1.35
2022-09-13T22:52:57.846Z,1.80
2022-09-13T22:56:40.546Z,1.50
2022-09-13T23:00:23.109Z,1.42
2022-09-13T23:04:06.742Z,1.85
2022-09-13T23:07:49.438Z,1.48
2022-09-13T23:11:35.807Z,1.40
2022-09-13T23:15:19.860Z,1.77
2022-09-13T23:19:02.587Z,1.67
2022-09-13T23:22:45.131Z,1.50
2022-09-13T23:26:29.273Z,1.60
2022-09-13T23:30:13.914Z,1.45
2022-09-13T23:33:58.349Z,1.63
2022-09-13T23:37:41.022Z,2.03
2022-09-13T23:41:25.845Z,1.98
2022-09-13T23:45:09.434Z,2.00
2022-09-13T23:48:53.679Z,1.67
2022-09-13T23:52:36.322Z,1.52
2022-09-13T23:56:20.064Z,1.80
